sensor_id;sensor_type;location;lat;lon;timestamp;P1;P2;P0
28647;PMS5003;17137;51.494;-0.262;2023-05-19T00:00:30;11;10;
28647;PMS5003;17137;51.494;-0.262;2023-05-19T00:01:01;10;9;
28647;PMS5003;17137;51.494;-0.262;2023-05-19T00:01:32;11;10;
28647;PMS5003;17137;51.494;-0.262;2023-05-19T00:02:03;11;10;
28647;PMS5003;17137;51.494;-0.262;2023-05-19T00:02:34;10;10;
28647;PMS5003;17137;51.494;-0.262;2023-05-19T00:03:05;10;10;
28647;PMS5003;17137;51.494;-0.262;2023-05-19T00:03:35;10;10;
28647;PMS5003;17137;51.494;-0.262;2023-05-19T00:04:06;9;9;
28647;PMS5003;17137;51.494;-0.262;2023-05-19T00:04:37;9;9;
28647;PMS5003;17137;51.494;-0.262;2023-05-19T00:05:08;9;9;
28647;PMS5003;17137;51.494;-0.262;2023-05-19T00:05:40;7;7;
28647;PMS5003;17137;51.494;-0.262;2023-05-19T00:06:11;7;7;
28647;PMS5003;17137;51.494;-0.262;2023-05-19T00:06:42;6;6;
28647;PMS5003;17137;51.494;-0.262;2023-05-19T00:07:18;7;7;
28647;PMS5003;17137;51.494;-0.262;2023-05-19T00:07:52;7;7;
28647;PMS5003;17137;51.494;-0.262;2023-05-19T00:08:27;8;8;
28647;PMS5003;17137;51.494;-0.262;2023-05-19T00:09:06;9;8;
28647;PMS5003;17137;51.494;-0.262;2023-05-19T00:09:38;9;8;
28647;PMS5003;17137;51.494;-0.262;2023-05-19T00:10:09;9;8;
28647;PMS5003;17137;51.494;-0.262;2023-05-19T00:10:40;10;9;
28647;PMS5003;17137;51.494;-0.262;2023-05-19T00:11:11;10;9;
28647;PMS5003;17137;51.494;-0.262;2023-05-19T00:11:42;10;9;
28647;PMS5003;17137;51.494;-0.262;2023-05-19T00:12:13;9;9;
28647;PMS5003;17137;51.494;-0.262;2023-05-19T00:12:44;9;9;
28647;PMS5003;17137;51.494;-0.262;2023-05-19T00:13:16;9;9;
28647;PMS5003;17137;51.494;-0.262;2023-05-19T00:13:46;9;9;
28647;PMS5003;17137;51.494;-0.262;2023-05-19T00:14:17;9;9;
28647;PMS5003;17137;51.494;-0.262;2023-05-19T00:14:48;9;9;
28647;PMS5003;17137;51.494;-0.262;2023-05-19T00:15:19;9;9;
28647;PMS5003;17137;51.494;-0.262;2023-05-19T00:15:50;9;9;
28647;PMS5003;17137;51.494;-0.262;2023-05-19T00:16:21;9;9;
28647;PMS5003;17137;51.494;-0.262;2023-05-19T00:16:52;7;6;
28647;PMS5003;17137;51.494;-0.262;2023-05-19T00:17:23;8;6;
28647;PMS5003;17137;51.494;-0.262;2023-05-19T00:17:54;8;6;
28647;PMS5003;17137;51.494;-0.262;2023-05-19T00:18:24;8;6;
28647;PMS5003;17137;51.494;-0.262;2023-05-19T00:18:55;8;6;
28647;PMS5003;17137;51.494;-0.262;2023-05-19T00:19:26;8;6;
28647;PMS5003;17137;51.494;-0.262;2023-05-19T00:20:02;8;6;
28647;PMS5003;17137;51.494;-0.262;2023-05-19T00:20:33;8;6;
28647;PMS5003;17137;51.494;-0.262;2023-05-19T00:21:03;8;6;
28647;PMS5003;17137;51.494;-0.262;2023-05-19T00:21:33;8;6;
28647;PMS5003;17137;51.494;-0.262;2023-05-19T00:22:04;8;5;
28647;PMS5003;17137;51.494;-0.262;2023-05-19T00:22:34;8;5;
28647;PMS5003;17137;51.494;-0.262;2023-05-19T00:23:04;8;5;
28647;PMS5003;17137;51.494;-0.262;2023-05-19T00:23:34;8;5;
28647;PMS5003;17137;51.494;-0.262;2023-05-19T00:24:05;8;5;
28647;PMS5003;17137;51.494;-0.262;2023-05-19T00:24:35;8;5;
28647;PMS5003;17137;51.494;-0.262;2023-05-19T00:25:06;6;5;
28647;PMS5003;17137;51.494;-0.262;2023-05-19T00:25:37;6;5;
28647;PMS5003;17137;51.494;-0.262;2023-05-19T00:26:07;7;6;
28647;PMS5003;17137;51.494;-0.262;2023-05-19T00:26:37;7;6;
28647;PMS5003;17137;51.494;-0.262;2023-05-19T00:27:08;7;6;
28647;PMS5003;17137;51.494;-0.262;2023-05-19T00:27:38;7;6;
28647;PMS5003;17137;51.494;-0.262;2023-05-19T00:28:08;7;6;
28647;PMS5003;17137;51.494;-0.262;2023-05-19T00:28:39;7;6;
28647;PMS5003;17137;51.494;-0.262;2023-05-19T00:29:09;6;6;
28647;PMS5003;17137;51.494;-0.262;2023-05-19T00:29:39;6;6;
28647;PMS5003;17137;51.494;-0.262;2023-05-19T00:30:10;6;6;
28647;PMS5003;17137;51.494;-0.262;2023-05-19T00:30:40;6;6;
28647;PMS5003;17137;51.494;-0.262;2023-05-19T00:31:11;6;6;
28647;PMS5003;17137;51.494;-0.262;2023-05-19T00:31:41;6;6;
28647;PMS5003;17137;51.494;-0.262;2023-05-19T00:32:11;7;7;
28647;PMS5003;17137;51.494;-0.262;2023-05-19T00:32:41;7;7;
28647;PMS5003;17137;51.494;-0.262;2023-05-19T00:33:12;10;8;
28647;PMS5003;17137;51.494;-0.262;2023-05-19T00:33:42;9;7;
28647;PMS5003;17137;51.494;-0.262;2023-05-19T00:34:12;9;7;
28647;PMS5003;17137;51.494;-0.262;2023-05-19T00:34:43;9;7;
28647;PMS5003;17137;51.494;-0.262;2023-05-19T00:35:13;9;7;
28647;PMS5003;17137;51.494;-0.262;2023-05-19T00:35:44;9;7;
28647;PMS5003;17137;51.494;-0.262;2023-05-19T00:36:14;9;7;
28647;PMS5003;17137;51.494;-0.262;2023-05-19T00:36:44;10;7;
28647;PMS5003;17137;51.494;-0.262;2023-05-19T00:37:15;10;7;
28647;PMS5003;17137;51.494;-0.262;2023-05-19T00:37:46;10;7;
28647;PMS5003;17137;51.494;-0.262;2023-05-19T00:38:16;9;7;
28647;PMS5003;17137;51.494;-0.262;2023-05-19T00:38:46;9;7;
28647;PMS5003;17137;51.494;-0.262;2023-05-19T00:39:17;9;7;
28647;PMS5003;17137;51.494;-0.262;2023-05-19T00:39:47;8;6;
28647;PMS5003;17137;51.494;-0.262;2023-05-19T00:40:17;8;6;
28647;PMS5003;17137;51.494;-0.262;2023-05-19T00:40:48;8;6;
28647;PMS5003;17137;51.494;-0.262;2023-05-19T00:41:18;10;8;
28647;PMS5003;17137;51.494;-0.262;2023-05-19T00:41:48;9;7;
28647;PMS5003;17137;51.494;-0.262;2023-05-19T00:42:19;9;7;
28647;PMS5003;17137;51.494;-0.262;2023-05-19T00:42:50;9;7;
28647;PMS5003;17137;51.494;-0.262;2023-05-19T00:43:20;9;7;
28647;PMS5003;17137;51.494;-0.262;2023-05-19T00:43:50;10;8;
28647;PMS5003;17137;51.494;-0.262;2023-05-19T00:44:20;10;9;
28647;PMS5003;17137;51.494;-0.262;2023-05-19T00:44:51;10;9;
28647;PMS5003;17137;51.494;-0.262;2023-05-19T00:45:23;9;8;
28647;PMS5003;17137;51.494;-0.262;2023-05-19T00:45:53;7;7;
28647;PMS5003;17137;51.494;-0.262;2023-05-19T00:46:24;7;7;
28647;PMS5003;17137;51.494;-0.262;2023-05-19T00:46:54;7;7;
28647;PMS5003;17137;51.494;-0.262;2023-05-19T00:47:24;8;8;
28647;PMS5003;17137;51.494;-0.262;2023-05-19T00:47:55;8;8;
28647;PMS5003;17137;51.494;-0.262;2023-05-19T00:48:25;8;8;
28647;PMS5003;17137;51.494;-0.262;2023-05-19T00:48:55;7;7;
28647;PMS5003;17137;51.494;-0.262;2023-05-19T00:49:26;9;7;
28647;PMS5003;17137;51.494;-0.262;2023-05-19T00:49:56;9;7;
28647;PMS5003;17137;51.494;-0.262;2023-05-19T00:50:26;10;8;
28647;PMS5003;17137;51.494;-0.262;2023-05-19T00:50:57;10;8;
28647;PMS5003;17137;51.494;-0.262;2023-05-19T00:51:30;9;8;
28647;PMS5003;17137;51.494;-0.262;2023-05-19T00:52:05;8;7;
28647;PMS5003;17137;51.494;-0.262;2023-05-19T00:52:36;8;7;
28647;PMS5003;17137;51.494;-0.262;2023-05-19T00:53:06;8;7;
28647;PMS5003;17137;51.494;-0.262;2023-05-19T00:53:37;8;7;
28647;PMS5003;17137;51.494;-0.262;2023-05-19T00:54:07;8;7;
28647;PMS5003;17137;51.494;-0.262;2023-05-19T00:54:38;8;8;
28647;PMS5003;17137;51.494;-0.262;2023-05-19T00:55:08;8;8;
28647;PMS5003;17137;51.494;-0.262;2023-05-19T00:55:40;9;9;
28647;PMS5003;17137;51.494;-0.262;2023-05-19T00:56:11;9;9;
28647;PMS5003;17137;51.494;-0.262;2023-05-19T00:56:41;9;9;
28647;PMS5003;17137;51.494;-0.262;2023-05-19T00:57:12;9;9;
28647;PMS5003;17137;51.494;-0.262;2023-05-19T00:57:43;6;5;
28647;PMS5003;17137;51.494;-0.262;2023-05-19T00:58:15;7;6;
28647;PMS5003;17137;51.494;-0.262;2023-05-19T00:58:46;7;6;
28647;PMS5003;17137;51.494;-0.262;2023-05-19T00:59:20;7;7;
28647;PMS5003;17137;51.494;-0.262;2023-05-19T00:59:50;7;7;
28647;PMS5003;17137;51.494;-0.262;2023-05-19T01:00:20;6;6;
28647;PMS5003;17137;51.494;-0.262;2023-05-19T01:00:51;6;5;
28647;PMS5003;17137;51.494;-0.262;2023-05-19T01:01:22;6;5;
28647;PMS5003;17137;51.494;-0.262;2023-05-19T01:01:52;7;6;
28647;PMS5003;17137;51.494;-0.262;2023-05-19T01:02:22;7;7;
28647;PMS5003;17137;51.494;-0.262;2023-05-19T01:02:53;7;7;
28647;PMS5003;17137;51.494;-0.262;2023-05-19T01:03:23;7;7;
28647;PMS5003;17137;51.494;-0.262;2023-05-19T01:03:53;8;7;
28647;PMS5003;17137;51.494;-0.262;2023-05-19T01:04:24;8;7;
28647;PMS5003;17137;51.494;-0.262;2023-05-19T01:04:55;8;7;
28647;PMS5003;17137;51.494;-0.262;2023-05-19T01:05:54;8;8;
28647;PMS5003;17137;51.494;-0.262;2023-05-19T01:06:25;7;7;
28647;PMS5003;17137;51.494;-0.262;2023-05-19T01:06:55;7;7;
28647;PMS5003;17137;51.494;-0.262;2023-05-19T01:07:26;7;7;
28647;PMS5003;17137;51.494;-0.262;2023-05-19T01:07:56;8;8;
28647;PMS5003;17137;51.494;-0.262;2023-05-19T01:08:27;8;8;
28647;PMS5003;17137;51.494;-0.262;2023-05-19T01:08:57;8;8;
28647;PMS5003;17137;51.494;-0.262;2023-05-19T01:09:28;8;8;
28647;PMS5003;17137;51.494;-0.262;2023-05-19T01:09:58;7;7;
28647;PMS5003;17137;51.494;-0.262;2023-05-19T01:10:28;7;7;
28647;PMS5003;17137;51.494;-0.262;2023-05-19T01:10:59;7;7;
28647;PMS5003;17137;51.494;-0.262;2023-05-19T01:11:29;8;8;
28647;PMS5003;17137;51.494;-0.262;2023-05-19T01:12:00;8;8;
28647;PMS5003;17137;51.494;-0.262;2023-05-19T01:12:30;8;8;
28647;PMS5003;17137;51.494;-0.262;2023-05-19T01:13:01;9;9;
28647;PMS5003;17137;51.494;-0.262;2023-05-19T01:13:33;8;8;
28647;PMS5003;17137;51.494;-0.262;2023-05-19T01:14:04;8;8;
28647;PMS5003;17137;51.494;-0.262;2023-05-19T01:14:35;8;8;
28647;PMS5003;17137;51.494;-0.262;2023-05-19T01:15:05;8;8;
28647;PMS5003;17137;51.494;-0.262;2023-05-19T01:15:38;8;8;
28647;PMS5003;17137;51.494;-0.262;2023-05-19T01:16:21;9;9;
28647;PMS5003;17137;51.494;-0.262;2023-05-19T01:16:57;9;9;
28647;PMS5003;17137;51.494;-0.262;2023-05-19T01:17:34;9;9;
28647;PMS5003;17137;51.494;-0.262;2023-05-19T01:18:10;8;8;
28647;PMS5003;17137;51.494;-0.262;2023-05-19T01:18:48;8;8;
28647;PMS5003;17137;51.494;-0.262;2023-05-19T01:19:29;8;8;
28647;PMS5003;17137;51.494;-0.262;2023-05-19T01:20:13;9;9;
28647;PMS5003;17137;51.494;-0.262;2023-05-19T01:20:50;9;9;
28647;PMS5003;17137;51.494;-0.262;2023-05-19T01:22:39;9;9;
28647;PMS5003;17137;51.494;-0.262;2023-05-19T01:23:27;8;8;
28647;PMS5003;17137;51.494;-0.262;2023-05-19T01:24:07;8;8;
28647;PMS5003;17137;51.494;-0.262;2023-05-19T01:24:59;9;7;
28647;PMS5003;17137;51.494;-0.262;2023-05-19T01:26:03;9;7;
28647;PMS5003;17137;51.494;-0.262;2023-05-19T01:27:23;9;7;
28647;PMS5003;17137;51.494;-0.262;2023-05-19T01:28:46;9;6;
28647;PMS5003;17137;51.494;-0.262;2023-05-19T01:29:36;9;6;
28647;PMS5003;17137;51.494;-0.262;2023-05-19T01:30:17;9;6;
28647;PMS5003;17137;51.494;-0.262;2023-05-19T01:30:54;9;7;
28647;PMS5003;17137;51.494;-0.262;2023-05-19T01:31:27;9;7;
28647;PMS5003;17137;51.494;-0.262;2023-05-19T01:31:58;9;7;
28647;PMS5003;17137;51.494;-0.262;2023-05-19T01:32:29;8;7;
28647;PMS5003;17137;51.494;-0.262;2023-05-19T01:33:02;8;7;
28647;PMS5003;17137;51.494;-0.262;2023-05-19T01:33:35;8;7;
28647;PMS5003;17137;51.494;-0.262;2023-05-19T01:34:08;9;8;
28647;PMS5003;17137;51.494;-0.262;2023-05-19T01:34:41;9;8;
28647;PMS5003;17137;51.494;-0.262;2023-05-19T01:35:15;9;8;
28647;PMS5003;17137;51.494;-0.262;2023-05-19T01:35:46;9;8;
28647;PMS5003;17137;51.494;-0.262;2023-05-19T01:36:19;12;10;
28647;PMS5003;17137;51.494;-0.262;2023-05-19T01:36:51;11;10;
28647;PMS5003;17137;51.494;-0.262;2023-05-19T01:37:24;11;10;
28647;PMS5003;17137;51.494;-0.262;2023-05-19T01:37:56;11;10;
28647;PMS5003;17137;51.494;-0.262;2023-05-19T01:38:28;12;11;
28647;PMS5003;17137;51.494;-0.262;2023-05-19T01:38:59;12;11;
28647;PMS5003;17137;51.494;-0.262;2023-05-19T01:39:31;12;11;
28647;PMS5003;17137;51.494;-0.262;2023-05-19T01:40:03;10;9;
28647;PMS5003;17137;51.494;-0.262;2023-05-19T01:40:35;10;9;
28647;PMS5003;17137;51.494;-0.262;2023-05-19T01:41:07;10;9;
28647;PMS5003;17137;51.494;-0.262;2023-05-19T01:41:40;9;8;
28647;PMS5003;17137;51.494;-0.262;2023-05-19T01:42:12;10;9;
28647;PMS5003;17137;51.494;-0.262;2023-05-19T01:42:43;10;9;
28647;PMS5003;17137;51.494;-0.262;2023-05-19T01:43:16;10;9;
28647;PMS5003;17137;51.494;-0.262;2023-05-19T01:43:49;10;9;
28647;PMS5003;17137;51.494;-0.262;2023-05-19T01:44:20;10;9;
28647;PMS5003;17137;51.494;-0.262;2023-05-19T01:44:52;9;9;
28647;PMS5003;17137;51.494;-0.262;2023-05-19T01:45:24;9;9;
28647;PMS5003;17137;51.494;-0.262;2023-05-19T01:45:56;9;9;
28647;PMS5003;17137;51.494;-0.262;2023-05-19T01:46:27;9;9;
28647;PMS5003;17137;51.494;-0.262;2023-05-19T01:46:57;9;9;
28647;PMS5003;17137;51.494;-0.262;2023-05-19T01:47:29;9;9;
28647;PMS5003;17137;51.494;-0.262;2023-05-19T01:48:00;9;9;
28647;PMS5003;17137;51.494;-0.262;2023-05-19T01:48:32;9;9;
28647;PMS5003;17137;51.494;-0.262;2023-05-19T01:49:02;9;9;
28647;PMS5003;17137;51.494;-0.262;2023-05-19T01:49:33;9;9;
28647;PMS5003;17137;51.494;-0.262;2023-05-19T01:50:03;9;9;
28647;PMS5003;17137;51.494;-0.262;2023-05-19T01:50:35;9;9;
28647;PMS5003;17137;51.494;-0.262;2023-05-19T01:51:05;9;9;
28647;PMS5003;17137;51.494;-0.262;2023-05-19T01:51:35;9;9;
28647;PMS5003;17137;51.494;-0.262;2023-05-19T01:52:11;9;9;
28647;PMS5003;17137;51.494;-0.262;2023-05-19T01:52:41;9;9;
28647;PMS5003;17137;51.494;-0.262;2023-05-19T01:53:12;11;9;
28647;PMS5003;17137;51.494;-0.262;2023-05-19T01:53:42;11;9;
28647;PMS5003;17137;51.494;-0.262;2023-05-19T01:54:13;11;9;
28647;PMS5003;17137;51.494;-0.262;2023-05-19T01:54:43;11;9;
28647;PMS5003;17137;51.494;-0.262;2023-05-19T01:55:13;9;8;
28647;PMS5003;17137;51.494;-0.262;2023-05-19T01:55:44;9;8;
28647;PMS5003;17137;51.494;-0.262;2023-05-19T01:56:23;9;8;
28647;PMS5003;17137;51.494;-0.262;2023-05-19T01:57:06;9;7;
28647;PMS5003;17137;51.494;-0.262;2023-05-19T01:57:46;10;8;
28647;PMS5003;17137;51.494;-0.262;2023-05-19T01:58:26;10;8;
28647;PMS5003;17137;51.494;-0.262;2023-05-19T01:59:08;10;8;
28647;PMS5003;17137;51.494;-0.262;2023-05-19T01:59:55;10;8;
28647;PMS5003;17137;51.494;-0.262;2023-05-19T02:00:36;10;8;
28647;PMS5003;17137;51.494;-0.262;2023-05-19T02:01:20;8;8;
28647;PMS5003;17137;51.494;-0.262;2023-05-19T02:01:59;8;8;
28647;PMS5003;17137;51.494;-0.262;2023-05-19T02:02:35;8;8;
28647;PMS5003;17137;51.494;-0.262;2023-05-19T02:03:26;10;9;
28647;PMS5003;17137;51.494;-0.262;2023-05-19T02:04:14;10;10;
28647;PMS5003;17137;51.494;-0.262;2023-05-19T02:04:54;10;10;
28647;PMS5003;17137;51.494;-0.262;2023-05-19T02:05:33;10;10;
28647;PMS5003;17137;51.494;-0.262;2023-05-19T02:06:18;9;9;
28647;PMS5003;17137;51.494;-0.262;2023-05-19T02:07:00;9;9;
28647;PMS5003;17137;51.494;-0.262;2023-05-19T02:07:36;9;9;
28647;PMS5003;17137;51.494;-0.262;2023-05-19T02:08:13;9;9;
28647;PMS5003;17137;51.494;-0.262;2023-05-19T02:08:50;9;9;
28647;PMS5003;17137;51.494;-0.262;2023-05-19T02:09:30;9;9;
28647;PMS5003;17137;51.494;-0.262;2023-05-19T02:10:09;9;9;
28647;PMS5003;17137;51.494;-0.262;2023-05-19T02:10:47;9;9;
28647;PMS5003;17137;51.494;-0.262;2023-05-19T02:11:25;9;9;
28647;PMS5003;17137;51.494;-0.262;2023-05-19T02:12:03;9;8;
28647;PMS5003;17137;51.494;-0.262;2023-05-19T02:12:44;9;8;
28647;PMS5003;17137;51.494;-0.262;2023-05-19T02:13:17;9;8;
28647;PMS5003;17137;51.494;-0.262;2023-05-19T02:13:53;13;7;
28647;PMS5003;17137;51.494;-0.262;2023-05-19T02:14:27;13;7;
28647;PMS5003;17137;51.494;-0.262;2023-05-19T02:15:03;14;8;
28647;PMS5003;17137;51.494;-0.262;2023-05-19T02:15:37;14;8;
28647;PMS5003;17137;51.494;-0.262;2023-05-19T02:16:10;14;8;
28647;PMS5003;17137;51.494;-0.262;2023-05-19T02:16:43;13;8;
28647;PMS5003;17137;51.494;-0.262;2023-05-19T02:17:16;13;8;
28647;PMS5003;17137;51.494;-0.262;2023-05-19T02:17:49;13;8;
28647;PMS5003;17137;51.494;-0.262;2023-05-19T02:18:20;14;8;
28647;PMS5003;17137;51.494;-0.262;2023-05-19T02:18:50;14;8;
28647;PMS5003;17137;51.494;-0.262;2023-05-19T02:19:23;14;8;
28647;PMS5003;17137;51.494;-0.262;2023-05-19T02:19:55;14;9;
28647;PMS5003;17137;51.494;-0.262;2023-05-19T02:20:25;14;9;
28647;PMS5003;17137;51.494;-0.262;2023-05-19T02:20:55;14;9;
28647;PMS5003;17137;51.494;-0.262;2023-05-19T02:21:26;12;9;
28647;PMS5003;17137;51.494;-0.262;2023-05-19T02:21:56;12;9;
28647;PMS5003;17137;51.494;-0.262;2023-05-19T02:22:27;8;8;
28647;PMS5003;17137;51.494;-0.262;2023-05-19T02:22:57;9;9;
28647;PMS5003;17137;51.494;-0.262;2023-05-19T02:23:27;9;9;
28647;PMS5003;17137;51.494;-0.262;2023-05-19T02:23:58;9;9;
28647;PMS5003;17137;51.494;-0.262;2023-05-19T02:24:28;9;9;
28647;PMS5003;17137;51.494;-0.262;2023-05-19T02:24:58;8;8;
28647;PMS5003;17137;51.494;-0.262;2023-05-19T02:25:29;8;8;
28647;PMS5003;17137;51.494;-0.262;2023-05-19T02:25:59;8;8;
28647;PMS5003;17137;51.494;-0.262;2023-05-19T02:26:29;8;8;
28647;PMS5003;17137;51.494;-0.262;2023-05-19T02:26:59;8;8;
28647;PMS5003;17137;51.494;-0.262;2023-05-19T02:27:30;8;8;
28647;PMS5003;17137;51.494;-0.262;2023-05-19T02:28:00;7;7;
28647;PMS5003;17137;51.494;-0.262;2023-05-19T02:28:31;6;6;
28647;PMS5003;17137;51.494;-0.262;2023-05-19T02:29:01;6;6;
28647;PMS5003;17137;51.494;-0.262;2023-05-19T02:29:31;7;7;
28647;PMS5003;17137;51.494;-0.262;2023-05-19T02:30:02;8;8;
28647;PMS5003;17137;51.494;-0.262;2023-05-19T02:30:32;10;10;
28647;PMS5003;17137;51.494;-0.262;2023-05-19T02:31:03;10;10;
28647;PMS5003;17137;51.494;-0.262;2023-05-19T02:31:33;10;10;
28647;PMS5003;17137;51.494;-0.262;2023-05-19T02:32:04;10;10;
28647;PMS5003;17137;51.494;-0.262;2023-05-19T02:32:35;10;10;
28647;PMS5003;17137;51.494;-0.262;2023-05-19T02:33:05;10;10;
28647;PMS5003;17137;51.494;-0.262;2023-05-19T02:33:36;10;10;
28647;PMS5003;17137;51.494;-0.262;2023-05-19T02:34:06;11;11;
28647;PMS5003;17137;51.494;-0.262;2023-05-19T02:34:37;11;11;
28647;PMS5003;17137;51.494;-0.262;2023-05-19T02:35:07;11;11;
28647;PMS5003;17137;51.494;-0.262;2023-05-19T02:35:38;11;11;
28647;PMS5003;17137;51.494;-0.262;2023-05-19T02:36:08;11;11;
28647;PMS5003;17137;51.494;-0.262;2023-05-19T02:36:39;11;11;
28647;PMS5003;17137;51.494;-0.262;2023-05-19T02:37:11;11;11;
28647;PMS5003;17137;51.494;-0.262;2023-05-19T02:37:42;11;11;
28647;PMS5003;17137;51.494;-0.262;2023-05-19T02:38:12;11;11;
28647;PMS5003;17137;51.494;-0.262;2023-05-19T02:38:42;9;9;
28647;PMS5003;17137;51.494;-0.262;2023-05-19T02:39:13;10;10;
28647;PMS5003;17137;51.494;-0.262;2023-05-19T02:39:43;11;11;
28647;PMS5003;17137;51.494;-0.262;2023-05-19T02:40:13;11;11;
28647;PMS5003;17137;51.494;-0.262;2023-05-19T02:40:44;10;10;
28647;PMS5003;17137;51.494;-0.262;2023-05-19T02:41:14;10;10;
28647;PMS5003;17137;51.494;-0.262;2023-05-19T02:41:45;10;10;
28647;PMS5003;17137;51.494;-0.262;2023-05-19T02:42:16;10;10;
28647;PMS5003;17137;51.494;-0.262;2023-05-19T02:42:46;10;10;
28647;PMS5003;17137;51.494;-0.262;2023-05-19T02:43:16;10;10;
28647;PMS5003;17137;51.494;-0.262;2023-05-19T02:43:47;11;11;
28647;PMS5003;17137;51.494;-0.262;2023-05-19T02:44:17;11;11;
28647;PMS5003;17137;51.494;-0.262;2023-05-19T02:44:47;11;11;
28647;PMS5003;17137;51.494;-0.262;2023-05-19T02:45:18;10;9;
28647;PMS5003;17137;51.494;-0.262;2023-05-19T02:45:48;10;9;
28647;PMS5003;17137;51.494;-0.262;2023-05-19T02:46:18;10;9;
28647;PMS5003;17137;51.494;-0.262;2023-05-19T02:46:49;10;8;
28647;PMS5003;17137;51.494;-0.262;2023-05-19T02:47:19;10;8;
28647;PMS5003;17137;51.494;-0.262;2023-05-19T02:47:50;10;8;
28647;PMS5003;17137;51.494;-0.262;2023-05-19T02:48:20;10;9;
28647;PMS5003;17137;51.494;-0.262;2023-05-19T02:48:51;10;9;
28647;PMS5003;17137;51.494;-0.262;2023-05-19T02:49:21;10;9;
28647;PMS5003;17137;51.494;-0.262;2023-05-19T02:49:52;11;9;
28647;PMS5003;17137;51.494;-0.262;2023-05-19T02:50:22;11;9;
28647;PMS5003;17137;51.494;-0.262;2023-05-19T02:50:53;11;9;
28647;PMS5003;17137;51.494;-0.262;2023-05-19T02:51:23;11;10;
28647;PMS5003;17137;51.494;-0.262;2023-05-19T02:51:53;11;10;
28647;PMS5003;17137;51.494;-0.262;2023-05-19T02:52:23;11;10;
28647;PMS5003;17137;51.494;-0.262;2023-05-19T02:52:54;11;10;
28647;PMS5003;17137;51.494;-0.262;2023-05-19T02:53:24;11;10;
28647;PMS5003;17137;51.494;-0.262;2023-05-19T02:53:55;11;10;
28647;PMS5003;17137;51.494;-0.262;2023-05-19T02:54:25;11;9;
28647;PMS5003;17137;51.494;-0.262;2023-05-19T02:54:55;10;10;
28647;PMS5003;17137;51.494;-0.262;2023-05-19T02:55:26;10;10;
28647;PMS5003;17137;51.494;-0.262;2023-05-19T02:55:56;9;9;
28647;PMS5003;17137;51.494;-0.262;2023-05-19T02:56:27;9;9;
28647;PMS5003;17137;51.494;-0.262;2023-05-19T02:56:57;9;9;
28647;PMS5003;17137;51.494;-0.262;2023-05-19T02:57:28;9;9;
28647;PMS5003;17137;51.494;-0.262;2023-05-19T02:57:58;9;9;
28647;PMS5003;17137;51.494;-0.262;2023-05-19T02:58:28;9;9;
28647;PMS5003;17137;51.494;-0.262;2023-05-19T02:58:59;8;8;
28647;PMS5003;17137;51.494;-0.262;2023-05-19T02:59:29;8;8;
28647;PMS5003;17137;51.494;-0.262;2023-05-19T03:00:00;8;8;
28647;PMS5003;17137;51.494;-0.262;2023-05-19T03:00:30;8;8;
28647;PMS5003;17137;51.494;-0.262;2023-05-19T03:01:00;8;8;
28647;PMS5003;17137;51.494;-0.262;2023-05-19T03:01:31;8;8;
28647;PMS5003;17137;51.494;-0.262;2023-05-19T03:02:01;8;8;
28647;PMS5003;17137;51.494;-0.262;2023-05-19T03:03:01;11;8;
28647;PMS5003;17137;51.494;-0.262;2023-05-19T03:03:31;11;8;
28647;PMS5003;17137;51.494;-0.262;2023-05-19T03:04:01;10;8;
28647;PMS5003;17137;51.494;-0.262;2023-05-19T03:04:32;10;8;
28647;PMS5003;17137;51.494;-0.262;2023-05-19T03:05:02;10;8;
28647;PMS5003;17137;51.494;-0.262;2023-05-19T03:05:34;10;9;
28647;PMS5003;17137;51.494;-0.262;2023-05-19T03:06:04;10;9;
28647;PMS5003;17137;51.494;-0.262;2023-05-19T03:06:35;10;9;
28647;PMS5003;17137;51.494;-0.262;2023-05-19T03:07:05;10;9;
28647;PMS5003;17137;51.494;-0.262;2023-05-19T03:07:35;10;9;
28647;PMS5003;17137;51.494;-0.262;2023-05-19T03:08:06;10;9;
28647;PMS5003;17137;51.494;-0.262;2023-05-19T03:08:36;9;9;
28647;PMS5003;17137;51.494;-0.262;2023-05-19T03:09:06;9;9;
28647;PMS5003;17137;51.494;-0.262;2023-05-19T03:09:37;9;9;
28647;PMS5003;17137;51.494;-0.262;2023-05-19T03:10:08;8;8;
28647;PMS5003;17137;51.494;-0.262;2023-05-19T03:10:38;12;11;
28647;PMS5003;17137;51.494;-0.262;2023-05-19T03:11:09;11;10;
28647;PMS5003;17137;51.494;-0.262;2023-05-19T03:11:39;10;9;
28647;PMS5003;17137;51.494;-0.262;2023-05-19T03:12:09;10;9;
28647;PMS5003;17137;51.494;-0.262;2023-05-19T03:12:40;10;9;
28647;PMS5003;17137;51.494;-0.262;2023-05-19T03:13:10;12;9;
28647;PMS5003;17137;51.494;-0.262;2023-05-19T03:13:40;12;9;
28647;PMS5003;17137;51.494;-0.262;2023-05-19T03:14:11;12;9;
28647;PMS5003;17137;51.494;-0.262;2023-05-19T03:14:41;13;10;
28647;PMS5003;17137;51.494;-0.262;2023-05-19T03:15:12;13;10;
28647;PMS5003;17137;51.494;-0.262;2023-05-19T03:15:42;13;10;
28647;PMS5003;17137;51.494;-0.262;2023-05-19T03:16:12;13;10;
28647;PMS5003;17137;51.494;-0.262;2023-05-19T03:16:43;13;10;
28647;PMS5003;17137;51.494;-0.262;2023-05-19T03:17:13;13;10;
28647;PMS5003;17137;51.494;-0.262;2023-05-19T03:17:43;11;9;
28647;PMS5003;17137;51.494;-0.262;2023-05-19T03:18:14;11;9;
28647;PMS5003;17137;51.494;-0.262;2023-05-19T03:18:44;7;7;
28647;PMS5003;17137;51.494;-0.262;2023-05-19T03:19:15;7;7;
28647;PMS5003;17137;51.494;-0.262;2023-05-19T03:19:46;8;8;
28647;PMS5003;17137;51.494;-0.262;2023-05-19T03:20:16;8;8;
28647;PMS5003;17137;51.494;-0.262;2023-05-19T03:20:47;8;8;
28647;PMS5003;17137;51.494;-0.262;2023-05-19T03:21:17;9;9;
28647;PMS5003;17137;51.494;-0.262;2023-05-19T03:21:47;9;9;
28647;PMS5003;17137;51.494;-0.262;2023-05-19T03:22:18;9;9;
28647;PMS5003;17137;51.494;-0.262;2023-05-19T03:22:48;9;9;
28647;PMS5003;17137;51.494;-0.262;2023-05-19T03:23:18;9;9;
28647;PMS5003;17137;51.494;-0.262;2023-05-19T03:23:49;9;9;
28647;PMS5003;17137;51.494;-0.262;2023-05-19T03:24:20;9;9;
28647;PMS5003;17137;51.494;-0.262;2023-05-19T03:24:50;9;9;
28647;PMS5003;17137;51.494;-0.262;2023-05-19T03:25:21;9;9;
28647;PMS5003;17137;51.494;-0.262;2023-05-19T03:25:51;10;10;
28647;PMS5003;17137;51.494;-0.262;2023-05-19T03:26:22;10;10;
28647;PMS5003;17137;51.494;-0.262;2023-05-19T03:26:52;8;8;
28647;PMS5003;17137;51.494;-0.262;2023-05-19T03:27:22;10;9;
28647;PMS5003;17137;51.494;-0.262;2023-05-19T03:27:53;10;9;
28647;PMS5003;17137;51.494;-0.262;2023-05-19T03:28:23;10;9;
28647;PMS5003;17137;51.494;-0.262;2023-05-19T03:28:54;10;9;
28647;PMS5003;17137;51.494;-0.262;2023-05-19T03:29:53;10;9;
28647;PMS5003;17137;51.494;-0.262;2023-05-19T03:30:24;10;9;
28647;PMS5003;17137;51.494;-0.262;2023-05-19T03:30:54;10;9;
28647;PMS5003;17137;51.494;-0.262;2023-05-19T03:31:24;10;9;
28647;PMS5003;17137;51.494;-0.262;2023-05-19T03:31:55;10;9;
28647;PMS5003;17137;51.494;-0.262;2023-05-19T03:32:25;10;9;
28647;PMS5003;17137;51.494;-0.262;2023-05-19T03:32:55;10;9;
28647;PMS5003;17137;51.494;-0.262;2023-05-19T03:33:26;10;8;
28647;PMS5003;17137;51.494;-0.262;2023-05-19T03:33:56;10;8;
28647;PMS5003;17137;51.494;-0.262;2023-05-19T03:34:26;10;8;
28647;PMS5003;17137;51.494;-0.262;2023-05-19T03:34:57;9;9;
28647;PMS5003;17137;51.494;-0.262;2023-05-19T03:35:27;9;9;
28647;PMS5003;17137;51.494;-0.262;2023-05-19T03:35:57;9;9;
28647;PMS5003;17137;51.494;-0.262;2023-05-19T03:36:28;9;9;
28647;PMS5003;17137;51.494;-0.262;2023-05-19T03:36:58;9;9;
28647;PMS5003;17137;51.494;-0.262;2023-05-19T03:37:28;9;9;
28647;PMS5003;17137;51.494;-0.262;2023-05-19T03:37:59;9;9;
28647;PMS5003;17137;51.494;-0.262;2023-05-19T03:38:29;9;9;